Time;durP1;ratioP1;P1;durP2;ratioP2;P2;SDS_P1;SDS_P2;PMS_P1;PMS_P2;Temp;Humidity;BMP_temperature;BMP_pressure;BME280_temperature;BME280_humidity;BME280_pressure;Samples;Min_cycle;Max_cycle;Signal;HPM_P1;HPM_P2
2024/02/17 00:01:55;;;;;;;15.18;6.90;;;;;;;17.80;50.37;102201.69;4919825;29;20031;-60
2024/02/17 00:04:20;;;;;;;17.50;6.03;;;;;;;17.84;50.58;102210.38;4936970;29;20043;-60
2024/02/17 00:06:46;;;;;;;14.15;6.80;;;;;;;17.86;51.21;102214.69;4935605;29;20036;-60
2024/02/17 00:09:11;;;;;;;12.23;6.18;;;;;;;17.84;51.40;102213.94;4951569;29;20066;-60
2024/02/17 00:11:37;;;;;;;13.32;5.72;;;;;;;17.87;50.97;102216.38;4936957;29;20110;-60
2024/02/17 00:14:03;;;;;;;12.95;7.10;;;;;;;17.89;51.45;102219.81;4936865;28;20126;-60
2024/02/17 00:16:28;;;;;;;16.40;6.35;;;;;;;17.88;50.99;102212.69;4935562;29;20488;-60
2024/02/17 00:18:54;;;;;;;14.20;6.53;;;;;;;17.87;50.86;102221.78;4936786;29;20039;-60
2024/02/17 00:21:19;;;;;;;10.18;5.72;;;;;;;17.89;50.59;102219.81;4935277;29;20035;-61
2024/02/17 00:23:44;;;;;;;16.13;7.20;;;;;;;17.90;50.73;102226.06;4935414;29;20027;-60
2024/02/17 00:26:10;;;;;;;10.20;6.05;;;;;;;17.89;51.13;102224.38;4936567;29;20035;-60
2024/02/17 00:28:35;;;;;;;15.55;6.18;;;;;;;17.90;51.34;102232.34;4935093;29;20036;-60
2024/02/17 00:31:01;;;;;;;14.15;6.32;;;;;;;17.90;50.89;102240.50;4924195;29;20044;-60
2024/02/17 00:33:26;;;;;;;10.57;5.65;;;;;;;17.90;50.65;102240.50;4917463;29;20063;-60
2024/02/17 00:35:52;;;;;;;14.23;5.95;;;;;;;17.90;50.85;102239.63;4916191;29;20404;-60
2024/02/17 00:38:19;;;;;;;13.65;6.72;;;;;;;17.88;50.71;102228.94;4916368;29;20028;-60
2024/02/17 00:40:45;;;;;;;14.25;5.97;;;;;;;17.91;51.21;102239.50;4916334;29;20044;-60
2024/02/17 00:43:10;;;;;;;14.70;5.57;;;;;;;17.85;51.06;102233.78;4900393;29;20428;-60
2024/02/17 00:45:36;;;;;;;12.38;4.63;;;;;;;17.93;51.21;102242.94;4915862;29;20028;-60
2024/02/17 00:48:01;;;;;;;8.95;5.40;;;;;;;17.92;51.03;102248.50;4917224;29;20584;-60
2024/02/17 00:50:26;;;;;;;12.32;5.70;;;;;;;17.93;51.35;102242.06;4931586;28;20408;-60
2024/02/17 00:52:52;;;;;;;14.30;5.68;;;;;;;17.85;51.08;102240.06;4926387;29;20527;-60
2024/02/17 00:55:18;;;;;;;13.43;4.90;;;;;;;17.86;51.35;102243.66;4957753;28;20035;-60
2024/02/17 00:57:44;;;;;;;15.32;5.25;;;;;;;17.88;51.33;102255.19;4926517;28;20496;-59
2024/02/17 01:00:10;;;;;;;14.70;5.57;;;;;;;17.88;51.13;102258.75;4925805;29;20039;-60
2024/02/17 01:02:35;;;;;;;11.48;4.22;;;;;;;17.87;51.10;102257.03;4910055;29;20039;-59
2024/02/17 01:05:00;;;;;;;9.73;4.72;;;;;;;17.87;51.02;102258.88;4924441;29;20068;-60
2024/02/17 01:07:26;;;;;;;12.90;4.55;;;;;;;17.89;51.27;102259.63;4924641;29;20495;-60
2024/02/17 01:09:54;;;;;;;14.38;4.18;;;;;;;17.90;51.49;102259.47;4926336;29;20046;-60
2024/02/17 01:12:20;;;;;;;12.15;4.55;;;;;;;17.91;51.04;102266.63;4910484;29;20447;-60
2024/02/17 01:14:45;;;;;;;12.05;3.95;;;;;;;17.92;50.92;102272.91;4909062;29;20040;-60
2024/02/17 01:17:10;;;;;;;10.18;4.15;;;;;;;17.92;50.62;102264.78;4923869;29;20384;-60
2024/02/17 01:19:36;;;;;;;8.50;3.50;;;;;;;17.91;51.34;102272.03;4925445;29;20102;-60
2024/02/17 01:22:01;;;;;;;12.38;4.13;;;;;;;17.90;51.46;102264.03;4924223;29;20036;-60
2024/02/17 01:24:26;;;;;;;11.32;4.03;;;;;;;17.90;51.21;102264.91;4925094;29;20514;-60
2024/02/17 01:26:53;;;;;;;12.98;3.60;;;;;;;17.89;51.09;102279.47;4924033;29;20415;-60
2024/02/17 01:29:18;;;;;;;7.80;3.40;;;;;;;17.87;51.17;102278.72;4926307;29;20033;-60
2024/02/17 01:31:44;;;;;;;9.32;3.30;;;;;;;17.86;50.75;102281.59;4923540;29;20036;-60
2024/02/17 01:34:10;;;;;;;16.00;4.30;;;;;;;17.87;51.21;102276.03;4940787;29;20063;-60
2024/02/17 01:36:35;;;;;;;11.20;3.58;;;;;;;17.88;50.82;102282.31;4927287;29;20032;-61
2024/02/17 01:39:01;;;;;;;9.88;3.70;;;;;;;17.86;50.97;102290.59;4930561;29;20028;-61
2024/02/17 01:41:26;;;;;;;13.00;3.78;;;;;;;17.84;50.74;102292.56;4929085;29;20079;-60
2024/02/17 01:43:51;;;;;;;16.92;4.13;;;;;;;17.81;50.71;102292.00;4928934;29;20031;-60
2024/02/17 01:46:17;;;;;;;7.10;2.90;;;;;;;17.80;50.79;102291.16;4931068;29;20044;-60
2024/02/17 01:48:43;;;;;;;10.27;3.65;;;;;;;17.77;50.74;102290.56;4927304;29;20040;-61
2024/02/17 01:51:11;;;;;;;11.75;4.57;;;;;;;17.77;50.38;102291.44;4928417;29;20499;-60
2024/02/17 01:53:37;;;;;;;13.27;4.18;;;;;;;17.74;51.29;102291.69;4928383;29;20040;-60
2024/02/17 01:56:05;;;;;;;11.43;3.30;;;;;;;17.71;50.89;102297.41;4927115;29;20039;-60
2024/02/17 01:58:30;;;;;;;9.77;3.03;;;;;;;17.72;50.69;102298.25;4928608;29;20445;-60
2024/02/17 02:00:57;;;;;;;7.10;3.80;;;;;;;17.69;51.37;102302.13;4912211;29;20028;-60
2024/02/17 02:03:22;;;;;;;9.82;2.88;;;;;;;17.68;51.06;102308.53;4927072;29;20062;-60
2024/02/17 02:05:48;;;;;;;17.80;3.90;;;;;;;17.62;50.31;102303.66;4929956;28;20052;-60
2024/02/17 02:08:13;;;;;;;10.65;2.95;;;;;;;17.59;50.61;102312.06;4928973;29;20442;-60
2024/02/17 02:10:39;;;;;;;7.13;3.50;;;;;;;17.59;50.38;102311.22;4929579;29;20445;-60
2024/02/17 02:13:04;;;;;;;13.52;3.03;;;;;;;17.57;51.08;102311.34;4925875;29;20047;-60
2024/02/17 02:15:45;;;;;;;14.25;3.35;;;;;;;17.56;50.88;102319.63;4918865;29;20489;-60
2024/02/17 02:18:10;;;;;;;8.00;2.85;;;;;;;17.54;50.85;102322.44;4902905;29;20032;-60
2024/02/17 02:20:38;;;;;;;9.38;3.00;;;;;;;17.51;50.68;102317.28;4919991;29;20408;-60
2024/02/17 02:23:04;;;;;;;5.68;3.00;;;;;;;17.50;50.82;102325.56;4918787;29;20032;-60
2024/02/17 02:25:30;;;;;;;9.85;3.15;;;;;;;17.48;51.31;102329.25;4918661;29;20128;-60
2024/02/17 02:27:56;;;;;;;4.95;2.63;;;;;;;17.50;51.23;102333.69;4918427;29;20040;-60
2024/02/17 02:30:22;;;;;;;6.82;3.13;;;;;;;17.50;51.14;102336.38;4902911;29;20041;-59
2024/02/17 02:32:48;;;;;;;9.13;2.60;;;;;;;17.46;50.93;102327.66;4902664;29;20039;-60
2024/02/17 02:35:14;;;;;;;10.82;3.13;;;;;;;17.46;50.93;102333.09;4918578;29;20036;-60
2024/02/17 02:37:39;;;;;;;13.18;3.17;;;;;;;17.46;50.91;102333.94;4919669;29;20102;-60
2024/02/17 02:40:06;;;;;;;8.57;3.20;;;;;;;17.45;51.60;102334.06;4918396;29;20172;-60
2024/02/17 02:42:31;;;;;;;7.80;2.95;;;;;;;17.48;50.94;102344.63;4918502;29;20083;-60
2024/02/17 02:44:56;;;;;;;5.43;2.70;;;;;;;17.50;51.27;102342.69;4919541;29;20492;-60
2024/02/17 02:47:22;;;;;;;12.18;3.13;;;;;;;17.50;51.05;102348.09;4917440;29;20044;-60
2024/02/17 02:49:47;;;;;;;10.88;3.22;;;;;;;17.52;51.63;102350.66;4918242;29;20568;-60
2024/02/17 02:52:13;;;;;;;11.55;2.95;;;;;;;17.52;50.51;102339.81;4919475;29;20032;-60
2024/02/17 02:54:39;;;;;;;9.50;3.30;;;;;;;17.54;50.65;102354.97;4919469;29;20111;-60
2024/02/17 02:57:04;;;;;;;9.02;3.00;;;;;;;17.53;51.35;102357.81;4902303;29;20115;-60
2024/02/17 02:59:29;;;;;;;10.85;3.10;;;;;;;17.55;51.47;102364.81;4919213;29;20044;-60
2024/02/17 03:01:55;;;;;;;8.52;3.00;;;;;;;17.54;51.10;102360.38;4919343;29;20028;-60
2024/02/17 03:04:20;;;;;;;10.90;4.28;;;;;;;17.51;51.20;102366.03;4919157;29;20039;-60
2024/02/17 03:06:45;;;;;;;15.38;3.17;;;;;;;17.52;51.13;102356.94;4917698;29;20453;-60
2024/02/17 03:09:12;;;;;;;14.02;3.88;;;;;;;17.57;51.43;102364.66;4919228;29;20085;-60
2024/02/17 03:11:37;;;;;;;6.15;2.92;;;;;;;17.57;50.75;102370.09;4918538;29;20119;-60
2024/02/17 03:14:03;;;;;;;7.80;3.13;;;;;;;17.52;51.31;102367.78;4936708;29;20068;-60
2024/02/17 03:16:29;;;;;;;11.57;3.35;;;;;;;17.54;50.49;102376.66;4936530;29;20023;-60
2024/02/17 03:18:55;;;;;;;11.27;4.00;;;;;;;17.54;51.09;102382.06;4938162;29;20048;-60
2024/02/17 03:21:20;;;;;;;6.00;3.55;;;;;;;17.54;50.79;102375.78;4936784;29;20039;-60
2024/02/17 03:23:45;;;;;;;11.32;3.97;;;;;;;17.55;51.37;102382.94;4936575;29;20091;-60
2024/02/17 03:26:11;;;;;;;7.78;2.95;;;;;;;17.54;50.78;102379.34;4920472;29;20418;-60
2024/02/17 03:28:36;;;;;;;7.97;3.10;;;;;;;17.55;51.08;102383.78;4936642;29;20032;-60
2024/02/17 03:31:02;;;;;;;10.23;3.65;;;;;;;17.56;51.38;102393.63;4937638;29;20046;-60
2024/02/17 03:33:28;;;;;;;6.45;3.45;;;;;;;17.58;51.03;102394.38;4936078;29;20083;-60
2024/02/17 03:35:54;;;;;;;7.47;3.63;;;;;;;17.55;51.26;102382.94;4936390;29;20046;-60
2024/02/17 03:38:19;;;;;;;6.43;2.85;;;;;;;17.56;50.94;102401.75;4936411;29;20482;-60
2024/02/17 03:40:44;;;;;;;12.77;2.95;;;;;;;17.56;50.86;102401.75;4920474;29;20067;-60
2024/02/17 03:43:10;;;;;;;16.55;4.28;;;;;;;17.54;50.72;102408.31;4936246;29;20054;-60
2024/02/17 03:45:35;;;;;;;7.28;2.97;;;;;;;17.53;50.77;102401.16;4937372;29;20408;-60
2024/02/17 03:48:01;;;;;;;17.23;3.22;;;;;;;17.53;50.86;102410.16;4937582;29;20031;-60
2024/02/17 03:50:27;;;;;;;10.27;2.78;;;;;;;17.52;50.79;102416.53;4936107;29;20385;-60
2024/02/17 03:52:52;;;;;;;11.15;4.18;;;;;;;17.52;51.15;102415.69;4937455;29;20042;-60
2024/02/17 03:55:18;;;;;;;7.38;2.83;;;;;;;17.51;51.11;102419.38;4937235;29;20047;-60
2024/02/17 03:57:43;;;;;;;8.95;4.03;;;;;;;17.53;51.69;102418.28;4936125;29;20563;-60
2024/02/17 04:00:13;;;;;;;9.13;3.80;;;;;;;17.54;51.53;102428.13;4936723;29;20032;-60
2024/02/17 04:02:39;;;;;;;8.85;3.42;;;;;;;17.53;51.94;102441.78;4936014;29;20052;-60
2024/02/17 04:05:04;;;;;;;11.60;3.85;;;;;;;17.51;51.11;102441.91;4937082;29;20031;-61
2024/02/17 04:07:30;;;;;;;19.15;3.72;;;;;;;17.53;51.33;102439.94;4935855;29;20043;-59
2024/02/17 04:09:57;;;;;;;8.95;4.13;;;;;;;17.53;50.58;102444.50;4937045;29;20122;-60
2024/02/17 04:12:22;;;;;;;8.70;3.50;;;;;;;17.54;50.97;102447.09;4936851;29;20504;-60
2024/02/17 04:14:48;;;;;;;8.45;2.67;;;;;;;17.54;50.56;102440.81;4935645;29;20118;-60
2024/02/17 04:17:13;;;;;;;7.63;3.30;;;;;;;17.54;51.39;102446.22;4935593;29;20385;-59
2024/02/17 04:19:39;;;;;;;9.23;3.70;;;;;;;17.57;50.34;102457.66;4936951;29;20032;-60
2024/02/17 04:22:04;;;;;;;12.05;3.83;;;;;;;17.57;51.07;102457.66;4935575;29;20043;-61
2024/02/17 04:24:30;;;;;;;13.50;3.40;;;;;;;17.53;50.59;102458.06;4935601;29;20063;-60
2024/02/17 04:26:56;;;;;;;9.93;3.47;;;;;;;17.55;50.97;102464.22;4936809;29;20036;-60
2024/02/17 04:29:21;;;;;;;10.15;3.55;;;;;;;17.56;50.89;102460.53;4936586;29;20036;-60
2024/02/17 04:31:47;;;;;;;7.75;3.72;;;;;;;17.52;50.96;102465.31;4936483;29;20408;-60
2024/02/17 04:34:12;;;;;;;13.05;4.90;;;;;;;17.56;50.90;102476.78;4935147;29;20059;-60
2024/02/17 04:36:37;;;;;;;9.80;3.65;;;;;;;17.53;51.23;102475.19;4936498;29;20047;-60
2024/02/17 04:39:03;;;;;;;8.13;3.60;;;;;;;17.50;51.15;102478.16;4934830;29;20586;-59
2024/02/17 04:41:28;;;;;;;13.90;4.20;;;;;;;17.51;50.86;102478.97;4935368;29;20043;-60
2024/02/17 04:43:53;;;;;;;19.10;4.35;;;;;;;17.48;50.96;102480.13;4935201;29;20054;-60
2024/02/17 04:46:19;;;;;;;7.97;3.30;;;;;;;17.49;50.97;102487.25;4936281;29;20032;-60
2024/02/17 04:48:44;;;;;;;12.10;3.13;;;;;;;17.48;51.18;102489.09;4935203;29;20455;-60
2024/02/17 04:51:09;;;;;;;10.25;3.67;;;;;;;17.48;51.04;102490.94;4936433;29;20040;-60
2024/02/17 04:53:35;;;;;;;11.60;3.25;;;;;;;17.48;51.28;102499.94;4934920;29;20058;-60
2024/02/17 04:56:00;;;;;;;14.02;3.42;;;;;;;17.45;51.35;102497.50;4935012;29;20055;-60
2024/02/17 04:58:26;;;;;;;12.38;3.35;;;;;;;17.43;50.77;102494.06;4936197;29;20123;-60
2024/02/17 05:00:51;;;;;;;9.85;3.05;;;;;;;17.47;51.26;102502.81;4934999;29;20040;-60
2024/02/17 05:03:16;;;;;;;11.07;3.03;;;;;;;17.47;50.95;102500.09;4934833;29;20039;-64
2024/02/17 05:05:42;;;;;;;12.30;3.95;;;;;;;17.46;51.38;102493.81;4936258;29;20440;-64
2024/02/17 05:08:08;;;;;;;11.73;3.10;;;;;;;17.45;51.19;102494.78;4919032;29;20044;-64
2024/02/17 05:10:33;;;;;;;7.10;3.15;;;;;;;17.47;51.43;102498.22;4934382;29;20043;-64
2024/02/17 05:12:58;;;;;;;7.97;3.20;;;;;;;17.49;51.02;102506.22;4936173;29;20119;-64
2024/02/17 05:15:24;;;;;;;14.18;3.80;;;;;;;17.47;50.88;102505.50;4936100;29;20036;-64
2024/02/17 05:17:49;;;;;;;11.00;3.30;;;;;;;17.47;50.79;102513.63;4935002;29;20036;-64
2024/02/17 05:20:14;;;;;;;8.68;3.53;;;;;;;17.46;50.66;102514.63;4934699;29;20071;-64
2024/02/17 05:22:42;;;;;;;8.27;2.83;;;;;;;17.44;51.00;102514.75;4934709;29;20039;-64
2024/02/17 05:25:08;;;;;;;10.05;3.15;;;;;;;17.49;50.54;102519.78;4934870;29;20103;-63
2024/02/17 05:27:33;;;;;;;11.63;3.35;;;;;;;17.47;51.03;102525.31;4935950;29;20040;-65
2024/02/17 05:29:58;;;;;;;6.53;3.25;;;;;;;17.48;50.67;102528.88;4934869;29;20040;-64
2024/02/17 05:32:24;;;;;;;9.93;3.30;;;;;;;17.46;51.04;102528.16;4950543;29;20102;-65
2024/02/17 05:34:49;;;;;;;11.88;3.25;;;;;;;17.41;50.58;102516.88;4936124;29;20130;-64
2024/02/17 05:37:15;;;;;;;9.07;3.10;;;;;;;17.43;50.39;102523.00;4935905;29;20042;-64
2024/02/17 05:39:40;;;;;;;13.00;4.40;;;;;;;17.46;51.01;102547.13;4935782;29;20028;-64
2024/02/17 05:42:05;;;;;;;8.82;4.55;;;;;;;17.46;50.44;102541.72;4934606;29;20047;-64
2024/02/17 05:44:31;;;;;;;11.93;4.25;;;;;;;17.43;51.42;102547.38;4934714;29;20043;-64
2024/02/17 05:46:57;;;;;;;12.43;3.60;;;;;;;17.43;51.38;102553.69;4934492;29;20071;-64
2024/02/17 05:49:22;;;;;;;7.68;3.25;;;;;;;17.43;50.93;102555.53;4934725;29;20043;-64
2024/02/17 05:51:51;;;;;;;6.65;3.08;;;;;;;17.38;50.77;102558.63;4918819;29;20500;-65
2024/02/17 05:54:17;;;;;;;8.55;2.88;;;;;;;17.41;50.46;102565.63;4934700;29;20495;-64
2024/02/17 05:56:44;;;;;;;11.52;3.28;;;;;;;17.40;51.44;102569.31;4936037;29;20031;-64
2024/02/17 05:59:09;;;;;;;9.35;3.70;;;;;;;17.38;50.62;102569.47;4934435;29;20073;-64
2024/02/17 06:01:34;;;;;;;9.82;3.33;;;;;;;17.39;50.85;102576.59;4934423;28;20476;-64
2024/02/17 06:04:00;;;;;;;13.00;3.63;;;;;;;17.39;51.23;102573.03;4937139;29;20506;-64
2024/02/17 06:06:26;;;;;;;10.32;3.03;;;;;;;17.40;51.32;102574.75;4938315;29;20067;-64
2024/02/17 06:08:52;;;;;;;9.90;2.88;;;;;;;17.38;51.00;102574.03;4940102;29;20075;-64
2024/02/17 06:11:18;;;;;;;9.07;3.10;;;;;;;17.38;51.00;102579.44;4935728;29;20499;-60
2024/02/17 06:13:43;;;;;;;9.13;3.40;;;;;;;17.35;51.38;102577.00;4935570;29;20088;-60
2024/02/17 06:16:11;;;;;;;11.00;2.97;;;;;;;17.37;50.60;102575.00;4918464;29;20056;-60
2024/02/17 06:21:22;;;;;;;8.73;3.85;;;;;;;17.35;51.57;102587.81;4934443;29;20419;-60
2024/02/17 06:23:47;;;;;;;12.43;3.42;;;;;;;17.34;51.16;102586.97;4937300;29;20506;-60
2024/02/17 06:26:23;;;;;;;10.25;3.40;;;;;;;17.35;51.06;102587.81;4937657;29;20027;-60
2024/02/17 06:28:48;;;;;;;4.80;2.33;;;;;;;17.35;51.32;102587.81;4937831;29;20036;-61
2024/02/17 06:31:14;;;;;;;9.13;3.60;;;;;;;17.29;51.12;102589.22;4937632;29;20522;-60
2024/02/17 06:33:39;;;;;;;11.23;3.70;;;;;;;17.28;51.39;102597.47;4938754;29;20039;-60
2024/02/17 06:36:05;;;;;;;13.63;3.15;;;;;;;17.33;51.52;102608.78;4921547;29;20043;-60
2024/02/17 06:38:31;;;;;;;15.65;3.47;;;;;;;17.31;51.23;102611.59;4937279;29;20032;-60
2024/02/17 06:40:56;;;;;;;7.80;2.75;;;;;;;17.35;50.04;102620.34;4937410;29;20032;-60
2024/02/17 06:43:21;;;;;;;8.85;2.75;;;;;;;17.33;50.99;102620.47;4921543;29;20164;-60
2024/02/17 06:45:47;;;;;;;8.80;2.92;;;;;;;17.34;51.30;102624.03;4937333;29;20032;-60
2024/02/17 06:48:12;;;;;;;9.27;3.20;;;;;;;17.32;51.20;102623.31;4937310;29;20035;-60
2024/02/17 06:50:37;;;;;;;7.75;2.83;;;;;;;17.32;50.87;102634.13;4921293;29;20087;-60
2024/02/17 06:53:03;;;;;;;9.43;3.40;;;;;;;17.32;51.21;102636.84;4937505;29;20035;-60
2024/02/17 06:55:28;;;;;;;12.15;2.70;;;;;;;17.33;50.49;102639.44;4938402;29;20028;-60
2024/02/17 06:57:53;;;;;;;8.68;2.97;;;;;;;17.34;50.88;102642.97;4937147;29;20036;-60
2024/02/17 07:00:19;;;;;;;17.42;2.83;;;;;;;17.32;50.95;102650.38;4938401;29;20084;-60
2024/02/17 07:02:45;;;;;;;11.38;3.20;;;;;;;17.32;51.14;102661.22;4938224;29;20087;-61
2024/02/17 07:05:13;;;;;;;11.30;3.25;;;;;;;17.31;51.09;102656.78;4937102;29;20464;-59
2024/02/17 07:07:39;;;;;;;7.72;3.17;;;;;;;17.31;51.17;102652.22;4936779;29;20521;-59
2024/02/17 07:10:05;;;;;;;8.85;3.13;;;;;;;17.31;50.61;102660.34;4938114;29;20045;-60
2024/02/17 07:12:34;;;;;;;11.00;3.20;;;;;;;17.31;51.03;102657.66;4936920;29;20035;-60
2024/02/17 07:15:00;;;;;;;8.52;2.40;;;;;;;17.29;50.79;102664.19;4936962;29;20448;-60
2024/02/17 07:17:25;;;;;;;11.75;3.22;;;;;;;17.30;51.38;102674.03;4920736;29;20066;-60
2024/02/17 07:19:50;;;;;;;12.25;3.00;;;;;;;17.30;50.39;102661.38;4936769;29;20032;-60
2024/02/17 07:22:16;;;;;;;9.52;2.45;;;;;;;17.29;50.86;102664.19;4938182;29;20042;-64
2024/02/17 07:24:42;;;;;;;11.73;3.33;;;;;;;17.30;51.75;102674.03;4936456;29;20036;-64
2024/02/17 07:27:11;;;;;;;11.90;3.10;;;;;;;17.29;50.55;102675.88;4936710;29;20515;-64
2024/02/17 07:29:38;;;;;;;13.20;3.38;;;;;;;17.30;49.94;102682.16;4936490;29;20500;-66
2024/02/17 07:32:04;;;;;;;10.73;3.50;;;;;;;17.30;51.04;102687.59;4936572;29;20400;-64
2024/02/17 07:34:31;;;;;;;9.27;3.35;;;;;;;17.32;51.12;102693.72;4936894;29;20507;-64
2024/02/17 07:36:58;;;;;;;5.65;3.08;;;;;;;17.31;50.75;102695.56;4936703;29;20035;-64
2024/02/17 07:39:24;;;;;;;6.35;2.50;;;;;;;17.33;51.11;102698.16;4936549;29;20116;-64
2024/02/17 07:41:50;;;;;;;10.52;2.90;;;;;;;17.35;50.88;102701.59;4920779;29;20054;-64
2024/02/17 07:44:17;;;;;;;17.85;3.22;;;;;;;17.37;51.01;102713.16;4936448;29;20106;-64
2024/02/17 07:46:42;;;;;;;13.63;3.58;;;;;;;17.40;50.71;102712.91;4937453;29;20040;-64
2024/02/17 07:49:08;;;;;;;10.38;2.83;;;;;;;17.40;50.97;102721.03;4936370;29;20127;-64
2024/02/17 07:51:34;;;;;;;8.98;3.55;;;;;;;17.43;50.71;102731.63;4936177;29;20042;-64
2024/02/17 07:53:59;;;;;;;8.77;2.20;;;;;;;17.44;50.54;102734.22;4936102;29;20043;-64
2024/02/17 07:56:25;;;;;;;7.25;3.42;;;;;;;17.45;50.24;102745.91;4937260;29;20044;-64
2024/02/17 07:58:50;;;;;;;7.60;3.58;;;;;;;17.41;51.01;102745.31;4936128;29;20040;-64
2024/02/17 08:01:16;;;;;;;9.45;2.92;;;;;;;17.46;50.42;102753.91;4937359;29;20059;-64
2024/02/17 08:03:42;;;;;;;6.90;2.22;;;;;;;17.49;50.83;102760.94;4920267;29;20539;-64
2024/02/17 08:06:07;;;;;;;9.00;2.95;;;;;;;17.48;51.00;102767.34;4936986;29;20107;-64
2024/02/17 08:08:32;;;;;;;8.13;2.75;;;;;;;17.47;50.63;102755.63;4937147;29;20407;-64
2024/02/17 08:10:58;;;;;;;10.45;3.75;;;;;;;17.50;51.36;102768.09;4935964;29;20059;-64
2024/02/17 08:13:23;;;;;;;17.00;3.42;;;;;;;17.51;50.76;102777.06;4937099;29;20427;-65
2024/02/17 08:15:49;;;;;;;16.10;2.85;;;;;;;17.54;51.19;102777.69;4935722;29;20413;-64
2024/02/17 08:18:14;;;;;;;7.60;2.20;;;;;;;17.54;50.71;102777.69;4919800;29;20062;-64
2024/02/17 08:20:40;;;;;;;14.43;4.05;;;;;;;17.56;50.68;102789.25;4935537;29;20036;-64
2024/02/17 08:23:05;;;;;;;6.07;2.35;;;;;;;17.58;50.15;102790.03;4919567;29;20040;-64
2024/02/17 08:25:30;;;;;;;10.32;3.88;;;;;;;17.61;50.98;102788.91;4935538;29;20032;-64
2024/02/17 08:27:56;;;;;;;7.38;3.05;;;;;;;17.60;51.14;102787.19;4936695;29;20035;-64
2024/02/17 08:30:22;;;;;;;8.30;2.90;;;;;;;17.60;50.95;102790.75;4936823;29;20511;-64
2024/02/17 08:32:47;;;;;;;7.10;2.75;;;;;;;17.60;50.44;102796.16;4935152;29;20028;-61
2024/02/17 08:35:13;;;;;;;6.57;2.88;;;;;;;17.65;51.18;102796.66;4935270;29;20523;-60
2024/02/17 08:37:38;;;;;;;10.77;2.35;;;;;;;17.62;50.48;102794.19;4936320;29;20028;-61
2024/02/17 08:40:05;;;;;;;11.45;2.55;;;;;;;17.64;50.07;102797.66;4935394;29;20095;-60
2024/02/17 08:42:30;;;;;;;11.88;1.88;;;;;;;17.67;50.00;102810.09;4935089;29;20436;-59
2024/02/17 08:44:55;;;;;;;12.73;2.25;;;;;;;17.67;50.25;102821.78;4935139;29;20055;-60
2024/02/17 08:47:22;;;;;;;5.90;2.53;;;;;;;17.67;50.32;102815.50;4936196;29;20036;-64
2024/02/17 08:49:48;;;;;;;11.68;2.75;;;;;;;17.68;50.09;102814.50;4936301;29;20038;-60
2024/02/17 08:52:13;;;;;;;10.23;3.28;;;;;;;17.72;50.32;102816.84;4934978;29;20031;-60
2024/02/17 08:54:39;;;;;;;6.60;2.00;;;;;;;17.73;49.96;102818.56;4936167;29;20495;-60
2024/02/17 08:57:04;;;;;;;13.98;2.78;;;;;;;17.75;50.45;102821.16;4934873;29;20035;-60
2024/02/17 08:59:29;;;;;;;11.35;2.60;;;;;;;17.77;50.99;102827.31;4934755;29;20035;-60
2024/02/17 09:01:55;;;;;;;5.93;2.28;;;;;;;17.76;50.62;102831.84;4934740;29;20071;-60
2024/02/17 09:04:20;;;;;;;7.57;2.15;;;;;;;17.77;49.94;102839.00;4934659;29;20102;-60
2024/02/17 09:06:45;;;;;;;9.32;3.22;;;;;;;17.77;50.34;102839.00;4934632;29;20055;-60
2024/02/17 09:09:11;;;;;;;5.93;2.53;;;;;;;17.81;50.08;102837.75;4934612;29;20522;-61
2024/02/17 09:11:36;;;;;;;5.72;1.65;;;;;;;17.83;49.94;102843.94;4934754;29;20039;-60
2024/02/17 09:14:03;;;;;;;8.52;2.90;;;;;;;17.86;50.26;102838.25;4935946;29;20032;-60
2024/02/17 09:16:28;;;;;;;9.88;2.55;;;;;;;17.90;50.08;102847.84;4934799;29;20038;-59
2024/02/17 09:18:53;;;;;;;11.75;3.22;;;;;;;17.92;50.21;102854.00;4934609;29;20114;-59
2024/02/17 09:21:19;;;;;;;8.55;2.17;;;;;;;17.94;50.20;102862.88;4934456;29;20039;-59
2024/02/17 09:23:44;;;;;;;10.93;2.53;;;;;;;17.94;49.81;102865.59;4935725;29;20036;-59
2024/02/17 09:26:10;;;;;;;5.25;2.40;;;;;;;17.97;50.01;102876.19;4918580;29;20555;-59
2024/02/17 09:28:35;;;;;;;12.00;2.13;;;;;;;17.98;50.45;102864.34;4934536;29;20575;-59
2024/02/17 09:31:01;;;;;;;8.40;2.40;;;;;;;18.02;49.91;102867.66;4935713;29;20118;-60
2024/02/17 09:33:30;;;;;;;7.75;2.38;;;;;;;18.04;50.27;102863.84;4918197;29;20083;-60
2024/02/17 09:35:55;;;;;;;6.90;2.17;;;;;;;18.10;49.46;102875.16;4935431;29;20103;-59
2024/02/17 09:38:21;;;;;;;9.93;2.00;;;;;;;18.15;50.06;102875.63;4934410;29;20039;-60
2024/02/17 09:40:47;;;;;;;4.30;1.98;;;;;;;18.16;50.24;102872.81;4934413;29;20503;-60
2024/02/17 09:43:13;;;;;;;13.48;2.30;;;;;;;18.21;49.66;102884.13;4934346;29;20036;-60
2024/02/17 09:45:38;;;;;;;10.27;2.35;;;;;;;18.25;50.30;102888.31;4935599;29;20036;-60
2024/02/17 09:48:05;;;;;;;8.82;3.00;;;;;;;18.31;49.73;102898.66;4934171;29;20522;-60
2024/02/17 09:50:31;;;;;;;7.30;2.10;;;;;;;18.35;49.97;102893.81;4931671;29;20032;-60
2024/02/17 09:52:56;;;;;;;13.40;2.72;;;;;;;18.43;49.68;102894.03;4899492;29;20084;-60
2024/02/17 09:55:23;;;;;;;9.38;2.25;;;;;;;18.47;49.23;102890.06;4899343;29;20079;-60
2024/02/17 09:57:48;;;;;;;8.52;2.30;;;;;;;18.51;49.13;102894.28;4917088;29;20523;-59
2024/02/17 10:00:14;;;;;;;10.10;2.20;;;;;;;18.55;49.15;102893.03;4920185;29;20036;-60
2024/02/17 10:02:40;;;;;;;12.80;3.53;;;;;;;18.61;49.38;102895.22;4918858;29;20416;-60
2024/02/17 10:05:07;;;;;;;7.47;2.83;;;;;;;18.65;49.48;102899.38;4920073;29;20119;-60
2024/02/17 10:07:32;;;;;;;11.13;2.70;;;;;;;18.71;49.21;102900.72;4918790;29;20385;-60
2024/02/17 10:09:58;;;;;;;10.40;2.88;;;;;;;18.77;48.80;102901.06;4919988;29;20111;-60
2024/02/17 10:12:24;;;;;;;9.70;2.65;;;;;;;18.82;49.56;102898.81;4919171;29;20119;-60
2024/02/17 10:14:52;;;;;;;12.00;3.25;;;;;;;18.82;49.22;102904.25;4919806;29;20111;-60
2024/02/17 10:17:20;;;;;;;9.82;2.53;;;;;;;18.88;49.44;102894.69;4918968;29;20408;-60
2024/02/17 10:19:46;;;;;;;12.20;2.67;;;;;;;18.91;49.20;102898.03;4918737;29;20032;-60
2024/02/17 10:22:12;;;;;;;5.10;2.17;;;;;;;18.96;49.68;102887.63;4919849;29;20039;-60
2024/02/17 10:24:38;;;;;;;8.80;2.45;;;;;;;19.05;48.74;102889.53;4902879;29;20414;-60
2024/02/17 10:27:05;;;;;;;10.05;3.72;;;;;;;19.11;49.04;102889.00;4902627;29;20037;-60
2024/02/17 10:29:31;;;;;;;13.85;3.00;;;;;;;19.16;48.49;102885.88;4919991;29;20040;-59
2024/02/17 10:31:57;;;;;;;11.57;2.50;;;;;;;19.27;48.55;102888.50;4919111;29;21144;-59
2024/02/17 10:34:23;;;;;;;9.23;2.67;;;;;;;19.34;48.77;102899.72;4918846;29;20061;-59
2024/02/17 10:36:49;;;;;;;8.27;2.60;;;;;;;19.34;48.79;102899.72;4920301;29;20047;-60
2024/02/17 10:39:14;;;;;;;10.73;2.58;;;;;;;19.33;48.69;102900.69;4918332;29;20055;-60
2024/02/17 10:41:40;;;;;;;16.52;3.03;;;;;;;19.32;48.05;102899.00;4918392;29;20033;-60
2024/02/17 10:44:06;;;;;;;11.55;3.28;;;;;;;19.32;48.04;102899.00;4918147;29;20115;-62
2024/02/17 10:46:35;;;;;;;14.63;3.75;;;;;;;19.35;48.25;102902.28;4917242;29;20044;-60
2024/02/17 10:49:22;;;;;;;12.73;3.35;;;;;;;19.37;48.27;102904.88;4918038;29;20043;-60
2024/02/17 10:51:57;;;;;;;8.40;2.40;;;;;;;19.37;48.19;102904.88;4919181;29;20043;-60
2024/02/17 10:54:56;;;;;;;9.07;2.88;;;;;;;19.44;48.11;102906.06;4918025;29;20043;-60
2024/02/17 10:57:22;;;;;;;12.70;2.65;;;;;;;19.46;48.81;102904.94;4895410;29;20040;-60
2024/02/17 10:59:53;;;;;;;8.27;2.17;;;;;;;19.48;48.72;102910.25;4918057;29;20124;-59
2024/02/17 11:02:21;;;;;;;7.80;2.72;;;;;;;19.53;48.03;102910.69;4902528;29;20036;-60
2024/02/17 11:04:47;;;;;;;11.50;2.47;;;;;;;19.56;48.32;102905.84;4902167;29;20036;-60
2024/02/17 11:07:13;;;;;;;12.32;2.92;;;;;;;19.68;48.17;102925.66;4917928;29;20107;-60
2024/02/17 11:09:38;;;;;;;11.35;2.13;;;;;;;19.72;48.32;102916.22;4916636;29;20032;-60
2024/02/17 11:12:28;;;;;;;7.38;2.53;;;;;;;19.79;48.11;102922.84;4917653;29;20032;-60
2024/02/17 11:15:07;;;;;;;12.75;2.60;;;;;;;19.81;48.13;102915.41;4918825;29;20032;-60
2024/02/17 11:17:38;;;;;;;11.27;3.13;;;;;;;19.85;48.46;102919.53;4917628;29;20032;-60
2024/02/17 11:20:06;;;;;;;13.50;4.10;;;;;;;19.93;47.68;102927.91;4917602;29;20528;-60